»·PEaware :: N196EC KSNA-L45

N196EC :: KSNA-L45

FLIGHT INFORMATION

Flight Status: Arrived
Operator: Privately registered:
United States
More flights under this callsign
Pilot: Adrián R. (20842)
Aircraft: AERMACCHI WARRIOR
(F260)
More flights by this aircraft type
Origin: KSNA John Wayne-Orange Co
United States
Destination: L45 Bakersfield Mun
United States
More flights between these airports :: More routes between these airports
Route: +SLI V23 POPPR SMO125R SMO SMO311 SILEX
File this flight plan on PilotEdge
Remarks: CSTP1 UNTIL SILEX THEN VFR TO L45
Altitude:
(Current/Filed)
4,000ft
Speed:
(Current/Filed)
160kts
Departed: 03-Dec-18 10:28 AM
Arrived: 03-Dec-18 11:24 AM
Distance/Time
Traveled:
114nm/0:56
Distance/Time
To Go:
Arrived

Flight Plot

Page will automatically refresh every two minutes.

Flight plan parsing failed; only flown route is shown


Map Options




Map Legend


Flown Route
Filed Route
Departure Airport
Arrival Airport
Navaid (VOR, NDB)
Fix

Horizontal Profiles

Position Reports

Time Latitude Longitude Heading Altitude Ground
Speed
03-Dec-18 10:12 33.672718 -117.866416 247 59ft 0kts
03-Dec-18 10:13 33.672718 -117.866416 247 59ft 0kts
03-Dec-18 10:14 33.672718 -117.866416 246 59ft 0kts
03-Dec-18 10:15 33.672718 -117.866416 246 59ft 0kts
03-Dec-18 10:16 33.672718 -117.866416 246 59ft 0kts
03-Dec-18 10:17 33.672718 -117.866416 246 59ft 0kts
03-Dec-18 10:18 33.672718 -117.866416 246 59ft 0kts
03-Dec-18 10:19 33.672718 -117.866416 246 59ft 0kts
03-Dec-18 10:20 33.672718 -117.866416 246 59ft 0kts
03-Dec-18 10:21 33.672718 -117.866416 246 59ft 0kts
03-Dec-18 10:22 33.672718 -117.866416 246 59ft 0kts
03-Dec-18 10:23 33.672718 -117.866417 246 59ft 0kts
03-Dec-18 10:24 33.672718 -117.866416 246 59ft 0kts
03-Dec-18 10:25 33.672672 -117.866543 247 59ft 5kts
03-Dec-18 10:26 33.672671 -117.866802 286 59ft 0kts
03-Dec-18 10:27 33.675101 -117.865825 26 59ft 18kts
03-Dec-18 10:28 33.679378 -117.863118 25 59ft 12kts
03-Dec-18 10:29 33.679975 -117.863644 297 59ft 0kts
03-Dec-18 10:30 33.680062 -117.863825 300 59ft 6kts
03-Dec-18 10:31 33.668709 -117.872336 212 332ft 105kts
03-Dec-18 10:32 33.636974 -117.879335 184 1537ft 131kts
03-Dec-18 10:33 33.601898 -117.884642 185 2710ft 125kts
03-Dec-18 10:34 33.589027 -117.915491 279 3797ft 126kts
03-Dec-18 10:35 33.595176 -117.961844 281 4000ft 149kts
03-Dec-18 10:36 33.607679 -118.007100 310 4000ft 141kts
03-Dec-18 10:37 33.632722 -118.043796 312 4000ft 143kts
03-Dec-18 10:38 33.657861 -118.077467 314 4623ft 123kts
03-Dec-18 10:39 33.680237 -118.106723 314 5583ft 115kts
03-Dec-18 10:40 33.703597 -118.136630 314 6007ft 138kts
03-Dec-18 10:41 33.730518 -118.170989 314 6004ft 151kts
03-Dec-18 10:42 33.760305 -118.209147 314 5999ft 159kts
03-Dec-18 10:43 33.790701 -118.248223 314 5999ft 160kts
03-Dec-18 10:44 33.820859 -118.287062 314 6000ft 158kts
03-Dec-18 10:45 33.847851 -118.321906 313 6008ft 128kts
03-Dec-18 10:46 33.874732 -118.356666 313 6019ft 151kts
03-Dec-18 10:47 33.904025 -118.394484 314 6017ft 156kts
03-Dec-18 10:48 33.933457 -118.432738 314 6016ft 155kts
03-Dec-18 10:49 33.969074 -118.461004 327 6015ft 154kts
03-Dec-18 10:50 34.002485 -118.488549 327 6011ft 134kts
03-Dec-18 10:51 34.033094 -118.513532 327 6015ft 132kts
03-Dec-18 10:52 34.063361 -118.538274 328 5997ft 132kts
03-Dec-18 10:53 34.094355 -118.563633 328 5998ft 140kts
03-Dec-18 10:54 34.124672 -118.588232 327 5999ft 141kts
03-Dec-18 10:55 34.157127 -118.614825 327 5998ft 141kts
03-Dec-18 10:56 34.189581 -118.641450 327 5997ft 140kts
03-Dec-18 10:57 34.216755 -118.664049 326 5997ft 141kts
03-Dec-18 10:58 34.249448 -118.691436 326 5996ft 143kts
03-Dec-18 10:59 34.281598 -118.719260 325 6137ft 141kts
03-Dec-18 11:00 34.318493 -118.735932 347 6500ft 151kts
03-Dec-18 11:01 34.361188 -118.747079 348 6494ft 155kts
03-Dec-18 11:02 34.401543 -118.754967 358 6497ft 142kts
03-Dec-18 11:03 34.440516 -118.755934 358 6499ft 139kts
03-Dec-18 11:04 34.479237 -118.756745 358 6500ft 139kts
03-Dec-18 11:05 34.517907 -118.757413 358 6501ft 139kts
03-Dec-18 11:06 34.556484 -118.756048 4 6502ft 139kts
03-Dec-18 11:07 34.595050 -118.750948 4 6471ft 141kts
03-Dec-18 11:08 34.634141 -118.749609 349 6430ft 141kts
03-Dec-18 11:09 34.672441 -118.759003 347 6381ft 142kts
03-Dec-18 11:10 34.710947 -118.769945 341 6326ft 143kts
03-Dec-18 11:11 34.747340 -118.786697 337 6286ft 142kts
03-Dec-18 11:12 34.783315 -118.806692 333 6270ft 142kts
03-Dec-18 11:13 34.818621 -118.827946 333 6268ft 141kts
03-Dec-18 11:14 34.853984 -118.848034 336 6290ft 140kts
03-Dec-18 11:15 34.889645 -118.865868 336 6310ft 138kts
03-Dec-18 11:16 34.925377 -118.883483 336 6330ft 144kts
03-Dec-18 11:17 34.962620 -118.901673 336 6348ft 144kts
03-Dec-18 11:18 34.999945 -118.919743 336 6368ft 145kts
03-Dec-18 11:19 35.038269 -118.939396 340 5791ft 153kts
03-Dec-18 11:20 35.078928 -118.952549 348 4933ft 150kts
03-Dec-18 11:21 35.119228 -118.961390 345 4129ft 150kts
03-Dec-18 11:22 35.159965 -118.971140 352 3440ft 148kts
03-Dec-18 11:23 35.201805 -118.979112 348 2661ft 153kts
03-Dec-18 11:24 35.243761 -118.985487 352 2026ft 149kts
03-Dec-18 11:25 35.281123 -118.990357 353 1377ft 127kts
03-Dec-18 11:26 35.311606 -118.994382 351 627ft 82kts
03-Dec-18 11:27 35.327479 -118.996526 303 381ft 10kts
03-Dec-18 11:28 35.325731 -118.996931 174 380ft 6kts
03-Dec-18 11:29 35.324878 -118.997111 354 380ft 7kts
03-Dec-18 11:30 35.326135 -118.997851 355 381ft 1kts
03-Dec-18 11:31 35.326267 -118.997859 358 381ft 0kts
03-Dec-18 11:32 35.326267 -118.997859 358 381ft 0kts
03-Dec-18 11:33 35.326267 -118.997859 358 381ft 0kts
03-Dec-18 11:34 35.326267 -118.997859 358 381ft 0kts
03-Dec-18 11:35 35.326267 -118.997859 358 381ft 0kts
03-Dec-18 11:36 35.326267 -118.997859 358 381ft 0kts

Navigation Log

Ident Type
Flight plan parsing failed, navigation log unavailable